Nova Monte Verde, Brazil
Current Conditions -  °F | °C
As of 6:00 PM on Friday 28 Nov 2014 (Local Time) from SBAT Reporting Station
Few Clouds Few Clouds  
Wind Chill: 90°   Ceiling: Unl
Heat Index: 98°   Visibility: 6mi
Dew Point: 73°   Wind: 2mph
Humidity: 59%   Direction: 360°N
Pressure: 29.8"   Gusts: NA
Location:  9.98°S, 57.53°W
Report Text: SBAT 282100Z 36002KT 9999 FEW030 FEW040TCU 32/23 Q1009
Loading
Personal Weather Stations






























Interactive Weather Map New forecast layout! Learn more

10-Day Weather Forecast

Advertisements
Track Severe Weather on mobile